Terminal Aerodrome Forecast
Issued by NWS Atlanta, GA

Home | Current Version | Previous Version | Text Only | Print | Product List | Glossary On
Versions: 1 2 3 4 5 6 7 8 9 10 11 12 13 14 15 16 17 18 19 20 21
000
FTUS42 KFFC 042140 AAB
TAFMCN
TAF AMD
KMCN 042140Z 0422/0518 30008G17KT P6SM SCT060
     FM050200 29006KT P6SM VCSH BKN060
     FM050900 30010G18KT P6SM SCT060
     FM051500 31012G20KT P6SM BKN060=

USA.gov is the U.S. government's official web portal to all federal, state and local government web resources and services.